X  Sluiten METAR luchtvaart weer gegevens         EBBR Maastricht Aachen
Temperatuur
15°C Temperatuur
3°C Dauwpunt
45% Vochtigheid



Wind
22 KM/U
14 MPH
6 M/S
12 KTS



230°
ZW
Huidig weer

Mostly Sunny Grotendeels zonnig
Luchtdruk 1021 (hPa) - 30.15 (inHg)
Zicht 7 (mijl) - 11 (km)
Vliegveld
Vliegveld code EBBR

Locatie : Maastricht Aachen
Afstand: 10 (km)

Metar:
METAR EBBR 241520Z 23012KT CAVOK 15/03 Q1021 NOSIG

Tijd: 24-03-2021 16:20 CET